sensor_id;sensor_type;location;lat;lon;timestamp;pressure;altitude;pressure_sealevel;temperature;humidity
9839;BME280;4958;48.150;11.506;2024-01-27T00:02:19;96436.72;;;7.25;67.35
9839;BME280;4958;48.150;11.506;2024-01-27T00:04:45;96448.84;;;7.23;67.47
9839;BME280;4958;48.150;11.506;2024-01-27T00:07:11;96483.63;;;7.16;68.28
9839;BME280;4958;48.150;11.506;2024-01-27T00:09:39;96499.53;;;7.20;68.28
9839;BME280;4958;48.150;11.506;2024-01-27T00:12:07;96510.59;;;7.20;68.21
9839;BME280;4958;48.150;11.506;2024-01-27T00:14:33;96504.38;;;7.23;68.13
9839;BME280;4958;48.150;11.506;2024-01-27T00:17:00;96521.78;;;7.19;68.25
9839;BME280;4958;48.150;11.506;2024-01-27T00:19:26;96531.75;;;7.22;68.78
9839;BME280;4958;48.150;11.506;2024-01-27T00:21:53;96541.06;;;7.23;68.62
9839;BME280;4958;48.150;11.506;2024-01-27T00:24:19;96517.88;;;7.25;68.50
9839;BME280;4958;48.150;11.506;2024-01-27T00:26:47;96525.56;;;7.25;68.66
9839;BME280;4958;48.150;11.506;2024-01-27T00:29:13;96536.50;;;7.27;69.18
9839;BME280;4958;48.150;11.506;2024-01-27T00:31:40;96531.06;;;7.20;68.92
9839;BME280;4958;48.150;11.506;2024-01-27T00:34:06;96514.59;;;7.13;68.77
9839;BME280;4958;48.150;11.506;2024-01-27T00:36:33;96540.09;;;7.15;69.33
9839;BME280;4958;48.150;11.506;2024-01-27T00:39:02;96519.22;;;7.10;68.76
9839;BME280;4958;48.150;11.506;2024-01-27T00:41:28;96518.09;;;7.03;68.91
9839;BME280;4958;48.150;11.506;2024-01-27T00:43:56;96539.25;;;7.05;69.14
9839;BME280;4958;48.150;11.506;2024-01-27T00:46:22;96537.09;;;7.00;68.89
9839;BME280;4958;48.150;11.506;2024-01-27T00:48:49;96533.59;;;7.01;69.01
9839;BME280;4958;48.150;11.506;2024-01-27T00:51:15;96541.41;;;7.00;69.25
9839;BME280;4958;48.150;11.506;2024-01-27T00:53:41;96568.63;;;6.91;69.53
9839;BME280;4958;48.150;11.506;2024-01-27T00:56:08;96571.81;;;6.83;70.20
9839;BME280;4958;48.150;11.506;2024-01-27T00:58:34;96574.13;;;6.86;69.92
9839;BME280;4958;48.150;11.506;2024-01-27T01:01:02;96570.63;;;6.87;70.01
9839;BME280;4958;48.150;11.506;2024-01-27T01:03:29;96572.75;;;6.82;70.13
9839;BME280;4958;48.150;11.506;2024-01-27T01:05:55;96565.19;;;6.81;69.74
9839;BME280;4958;48.150;11.506;2024-01-27T01:08:22;96572.97;;;6.70;69.76
9839;BME280;4958;48.150;11.506;2024-01-27T01:10:48;96593.75;;;6.55;70.27
9839;BME280;4958;48.150;11.506;2024-01-27T01:13:15;96614.63;;;6.51;70.72
9839;BME280;4958;48.150;11.506;2024-01-27T01:15:41;96619.50;;;6.54;71.10
9839;BME280;4958;48.150;11.506;2024-01-27T01:18:09;96608.28;;;6.55;70.97
9839;BME280;4958;48.150;11.506;2024-01-27T01:20:35;96581.91;;;6.54;70.21
9839;BME280;4958;48.150;11.506;2024-01-27T01:23:02;96576.97;;;6.63;69.79
9839;BME280;4958;48.150;11.506;2024-01-27T01:25:28;96568.78;;;6.69;69.86
9839;BME280;4958;48.150;11.506;2024-01-27T01:27:56;96564.34;;;6.71;69.43
9839;BME280;4958;48.150;11.506;2024-01-27T01:30:22;96541.56;;;6.68;68.98
9839;BME280;4958;48.150;11.506;2024-01-27T01:32:48;96535.91;;;6.64;68.69
9839;BME280;4958;48.150;11.506;2024-01-27T01:35:16;96544.50;;;6.63;69.01
9839;BME280;4958;48.150;11.506;2024-01-27T01:37:43;96558.50;;;6.59;69.24
9839;BME280;4958;48.150;11.506;2024-01-27T01:40:10;96565.09;;;6.62;69.25
9839;BME280;4958;48.150;11.506;2024-01-27T01:42:37;96565.66;;;6.65;69.14
9839;BME280;4958;48.150;11.506;2024-01-27T01:45:03;96563.06;;;6.55;68.95
9839;BME280;4958;48.150;11.506;2024-01-27T01:47:30;96567.19;;;6.47;68.98
9839;BME280;4958;48.150;11.506;2024-01-27T01:49:56;96547.59;;;6.36;68.83
9839;BME280;4958;48.150;11.506;2024-01-27T01:52:24;96553.81;;;6.34;69.07
9839;BME280;4958;48.150;11.506;2024-01-27T01:54:51;96554.47;;;6.36;69.27
9839;BME280;4958;48.150;11.506;2024-01-27T01:57:17;96548.53;;;6.35;69.09
9839;BME280;4958;48.150;11.506;2024-01-27T01:59:44;96532.66;;;6.32;68.76
9839;BME280;4958;48.150;11.506;2024-01-27T02:02:12;96545.81;;;6.27;68.81
9839;BME280;4958;48.150;11.506;2024-01-27T02:04:40;96553.50;;;6.27;68.88
9839;BME280;4958;48.150;11.506;2024-01-27T02:07:06;96555.25;;;6.27;68.99
9839;BME280;4958;48.150;11.506;2024-01-27T02:09:34;96546.44;;;6.19;68.72
9839;BME280;4958;48.150;11.506;2024-01-27T02:12:01;96570.72;;;6.25;68.90
9839;BME280;4958;48.150;11.506;2024-01-27T02:14:27;96579.19;;;6.26;69.01
9839;BME280;4958;48.150;11.506;2024-01-27T02:16:54;96589.53;;;6.24;69.09
9839;BME280;4958;48.150;11.506;2024-01-27T02:19:21;96575.38;;;6.20;68.66
9839;BME280;4958;48.150;11.506;2024-01-27T02:21:47;96573.88;;;6.17;68.57
9839;BME280;4958;48.150;11.506;2024-01-27T02:24:15;96571.44;;;6.16;68.74
9839;BME280;4958;48.150;11.506;2024-01-27T02:26:42;96568.34;;;6.12;68.62
9839;BME280;4958;48.150;11.506;2024-01-27T02:29:08;96563.47;;;6.09;68.67
9839;BME280;4958;48.150;11.506;2024-01-27T02:31:34;96559.88;;;6.12;68.33
9839;BME280;4958;48.150;11.506;2024-01-27T02:34:01;96570.91;;;6.12;68.70
9839;BME280;4958;48.150;11.506;2024-01-27T02:36:27;96575.09;;;6.13;68.80
9839;BME280;4958;48.150;11.506;2024-01-27T02:38:53;96561.72;;;6.10;68.58
9839;BME280;4958;48.150;11.506;2024-01-27T02:41:21;96567.28;;;6.15;68.66
9839;BME280;4958;48.150;11.506;2024-01-27T02:43:47;96567.94;;;6.17;68.66
9839;BME280;4958;48.150;11.506;2024-01-27T02:46:14;96559.22;;;6.19;68.40
9839;BME280;4958;48.150;11.506;2024-01-27T02:48:41;96542.38;;;6.17;68.49
9839;BME280;4958;48.150;11.506;2024-01-27T02:51:07;96542.25;;;6.18;68.18
9839;BME280;4958;48.150;11.506;2024-01-27T02:53:34;96532.31;;;6.15;68.27
9839;BME280;4958;48.150;11.506;2024-01-27T02:56:00;96549.06;;;6.08;68.42
9839;BME280;4958;48.150;11.506;2024-01-27T02:58:28;96576.63;;;6.05;68.82
9839;BME280;4958;48.150;11.506;2024-01-27T03:00:55;96586.50;;;6.09;68.93
9839;BME280;4958;48.150;11.506;2024-01-27T03:03:21;96574.06;;;6.05;68.73
9839;BME280;4958;48.150;11.506;2024-01-27T03:05:48;96580.81;;;6.06;68.79
9839;BME280;4958;48.150;11.506;2024-01-27T03:08:15;96580.94;;;6.04;68.68
9839;BME280;4958;48.150;11.506;2024-01-27T03:10:42;96586.03;;;6.04;68.95
9839;BME280;4958;48.150;11.506;2024-01-27T03:13:08;96602.19;;;6.05;69.36
9839;BME280;4958;48.150;11.506;2024-01-27T03:15:36;96623.00;;;6.00;69.44
9839;BME280;4958;48.150;11.506;2024-01-27T03:18:03;96622.88;;;6.02;69.68
9839;BME280;4958;48.150;11.506;2024-01-27T03:20:29;96618.47;;;6.04;69.41
9839;BME280;4958;48.150;11.506;2024-01-27T03:22:56;96634.25;;;6.09;69.26
9839;BME280;4958;48.150;11.506;2024-01-27T03:25:22;96629.03;;;6.10;69.31
9839;BME280;4958;48.150;11.506;2024-01-27T03:27:50;96633.19;;;6.11;69.17
9839;BME280;4958;48.150;11.506;2024-01-27T03:30:17;96628.78;;;6.13;69.16
9839;BME280;4958;48.150;11.506;2024-01-27T03:32:45;96629.72;;;6.12;69.20
9839;BME280;4958;48.150;11.506;2024-01-27T03:35:11;96640.75;;;6.13;69.46
9839;BME280;4958;48.150;11.506;2024-01-27T03:37:37;96629.81;;;6.11;69.22
9839;BME280;4958;48.150;11.506;2024-01-27T03:40:05;96629.94;;;6.09;68.79
9839;BME280;4958;48.150;11.506;2024-01-27T03:42:31;96619.59;;;6.11;68.54
9839;BME280;4958;48.150;11.506;2024-01-27T03:44:58;96627.28;;;6.11;68.68
9839;BME280;4958;48.150;11.506;2024-01-27T03:47:24;96626.22;;;6.13;68.60
9839;BME280;4958;48.150;11.506;2024-01-27T03:49:52;96632.81;;;6.16;68.72
9839;BME280;4958;48.150;11.506;2024-01-27T03:52:18;96630.88;;;6.08;68.51
9839;BME280;4958;48.150;11.506;2024-01-27T03:54:45;96651.81;;;6.02;68.95
9839;BME280;4958;48.150;11.506;2024-01-27T03:57:11;96677.25;;;6.04;69.20
9839;BME280;4958;48.150;11.506;2024-01-27T03:59:40;96652.97;;;5.98;68.87
9839;BME280;4958;48.150;11.506;2024-01-27T04:02:06;96651.50;;;5.96;69.13
9839;BME280;4958;48.150;11.506;2024-01-27T04:04:32;96651.63;;;5.94;69.23
9839;BME280;4958;48.150;11.506;2024-01-27T04:07:00;96681.38;;;5.95;69.45
9839;BME280;4958;48.150;11.506;2024-01-27T04:09:27;96665.22;;;5.95;69.36
9839;BME280;4958;48.150;11.506;2024-01-27T04:11:54;96660.09;;;5.95;69.24
9839;BME280;4958;48.150;11.506;2024-01-27T04:14:20;96664.03;;;5.99;69.31
9839;BME280;4958;48.150;11.506;2024-01-27T04:16:46;96664.84;;;5.99;69.13
9839;BME280;4958;48.150;11.506;2024-01-27T04:19:15;96666.34;;;6.02;69.50
9839;BME280;4958;48.150;11.506;2024-01-27T04:21:41;96671.69;;;5.99;69.38
9839;BME280;4958;48.150;11.506;2024-01-27T04:24:09;96662.97;;;6.01;69.26
9839;BME280;4958;48.150;11.506;2024-01-27T04:26:36;96658.91;;;5.99;69.05
9839;BME280;4958;48.150;11.506;2024-01-27T04:29:02;96666.47;;;6.00;69.53
9839;BME280;4958;48.150;11.506;2024-01-27T04:31:29;96680.06;;;6.01;69.34
9839;BME280;4958;48.150;11.506;2024-01-27T04:33:56;96660.94;;;5.95;69.17
9839;BME280;4958;48.150;11.506;2024-01-27T04:36:27;96660.22;;;5.93;69.10
9839;BME280;4958;48.150;11.506;2024-01-27T04:38:54;96666.50;;;5.89;69.27
9839;BME280;4958;48.150;11.506;2024-01-27T04:41:21;96672.44;;;5.89;68.94
9839;BME280;4958;48.150;11.506;2024-01-27T04:43:48;96667.53;;;5.86;69.08
9839;BME280;4958;48.150;11.506;2024-01-27T04:46:15;96671.81;;;5.86;69.00
9839;BME280;4958;48.150;11.506;2024-01-27T04:48:42;96671.50;;;5.91;68.97
9839;BME280;4958;48.150;11.506;2024-01-27T04:51:08;96658.72;;;5.91;69.07
9839;BME280;4958;48.150;11.506;2024-01-27T04:53:35;96646.75;;;5.91;68.82
9839;BME280;4958;48.150;11.506;2024-01-27T04:56:01;96681.34;;;5.84;69.13
9839;BME280;4958;48.150;11.506;2024-01-27T04:58:29;96689.94;;;5.83;69.59
9839;BME280;4958;48.150;11.506;2024-01-27T05:00:55;96699.13;;;5.85;69.60
9839;BME280;4958;48.150;11.506;2024-01-27T05:03:22;96679.03;;;5.81;69.21
9839;BME280;4958;48.150;11.506;2024-01-27T05:05:48;96691.81;;;5.81;69.46
9839;BME280;4958;48.150;11.506;2024-01-27T05:08:14;96703.34;;;5.75;69.33
9839;BME280;4958;48.150;11.506;2024-01-27T05:10:41;96730.53;;;5.76;69.73
9839;BME280;4958;48.150;11.506;2024-01-27T05:13:07;96718.78;;;5.74;69.62
9839;BME280;4958;48.150;11.506;2024-01-27T05:15:35;96728.09;;;5.75;69.96
9839;BME280;4958;48.150;11.506;2024-01-27T05:18:02;96742.59;;;5.74;69.78
9839;BME280;4958;48.150;11.506;2024-01-27T05:20:28;96740.97;;;5.73;70.03
9839;BME280;4958;48.150;11.506;2024-01-27T05:22:54;96736.09;;;5.70;69.62
9839;BME280;4958;48.150;11.506;2024-01-27T05:25:21;96738.66;;;5.70;69.69
9839;BME280;4958;48.150;11.506;2024-01-27T05:27:47;96738.66;;;5.70;69.94
9839;BME280;4958;48.150;11.506;2024-01-27T05:30:15;96731.91;;;5.69;69.79
9839;BME280;4958;48.150;11.506;2024-01-27T05:32:43;96745.72;;;5.67;69.67
9839;BME280;4958;48.150;11.506;2024-01-27T05:35:10;96757.91;;;5.63;69.65
9839;BME280;4958;48.150;11.506;2024-01-27T05:37:36;96764.88;;;5.61;69.80
9839;BME280;4958;48.150;11.506;2024-01-27T05:40:05;96768.50;;;5.59;69.73
9839;BME280;4958;48.150;11.506;2024-01-27T05:42:32;96767.56;;;5.60;69.92
9839;BME280;4958;48.150;11.506;2024-01-27T05:44:58;96771.84;;;5.59;69.97
9839;BME280;4958;48.150;11.506;2024-01-27T05:47:25;96775.09;;;5.61;69.99
9839;BME280;4958;48.150;11.506;2024-01-27T05:49:52;96787.06;;;5.61;70.23
9839;BME280;4958;48.150;11.506;2024-01-27T05:52:19;96792.53;;;5.56;70.32
9839;BME280;4958;48.150;11.506;2024-01-27T05:54:45;96799.72;;;5.62;70.13
9839;BME280;4958;48.150;11.506;2024-01-27T05:57:12;96811.56;;;5.63;70.37
9839;BME280;4958;48.150;11.506;2024-01-27T05:59:38;96796.59;;;5.59;70.56
9839;BME280;4958;48.150;11.506;2024-01-27T06:02:04;96817.03;;;5.59;70.38
9839;BME280;4958;48.150;11.506;2024-01-27T06:04:31;96819.84;;;5.55;70.55
9839;BME280;4958;48.150;11.506;2024-01-27T06:06:59;96836.78;;;5.57;70.87
9839;BME280;4958;48.150;11.506;2024-01-27T06:09:26;96830.97;;;5.54;70.66
9839;BME280;4958;48.150;11.506;2024-01-27T06:11:52;96839.56;;;5.53;70.47
9839;BME280;4958;48.150;11.506;2024-01-27T06:14:19;96827.25;;;5.47;70.53
9839;BME280;4958;48.150;11.506;2024-01-27T06:16:45;96834.31;;;5.44;70.83
9839;BME280;4958;48.150;11.506;2024-01-27T06:19:11;96833.63;;;5.42;70.76
9839;BME280;4958;48.150;11.506;2024-01-27T06:21:38;96838.94;;;5.39;70.80
9839;BME280;4958;48.150;11.506;2024-01-27T06:24:06;96835.22;;;5.32;71.00
9839;BME280;4958;48.150;11.506;2024-01-27T06:26:32;96850.66;;;5.30;70.97
9839;BME280;4958;48.150;11.506;2024-01-27T06:28:59;96857.94;;;5.24;71.33
9839;BME280;4958;48.150;11.506;2024-01-27T06:31:27;96872.22;;;5.15;71.48
9839;BME280;4958;48.150;11.506;2024-01-27T06:33:55;96875.00;;;5.12;71.83
9839;BME280;4958;48.150;11.506;2024-01-27T06:36:21;96867.66;;;5.07;71.63
9839;BME280;4958;48.150;11.506;2024-01-27T06:38:50;96872.94;;;5.17;71.71
9839;BME280;4958;48.150;11.506;2024-01-27T06:41:17;96886.25;;;5.20;71.51
9839;BME280;4958;48.150;11.506;2024-01-27T06:43:44;96897.19;;;5.22;71.83
9839;BME280;4958;48.150;11.506;2024-01-27T06:46:10;96891.84;;;5.26;71.77
9839;BME280;4958;48.150;11.506;2024-01-27T06:48:37;96878.28;;;5.25;71.27
9839;BME280;4958;48.150;11.506;2024-01-27T06:51:04;96879.91;;;5.26;71.13
9839;BME280;4958;48.150;11.506;2024-01-27T06:53:30;96890.00;;;5.28;71.63
9839;BME280;4958;48.150;11.506;2024-01-27T06:55:57;96881.53;;;5.27;71.37
9839;BME280;4958;48.150;11.506;2024-01-27T06:58:25;96873.75;;;5.29;71.19
9839;BME280;4958;48.150;11.506;2024-01-27T07:00:51;96882.22;;;5.29;71.49
9839;BME280;4958;48.150;11.506;2024-01-27T07:03:17;96904.50;;;5.27;71.71
9839;BME280;4958;48.150;11.506;2024-01-27T07:05:44;96899.06;;;5.32;71.48
9839;BME280;4958;48.150;11.506;2024-01-27T07:08:10;96897.44;;;5.31;71.49
9839;BME280;4958;48.150;11.506;2024-01-27T07:10:37;96903.03;;;5.36;71.63
9839;BME280;4958;48.150;11.506;2024-01-27T07:13:05;96875.38;;;5.30;71.38
9839;BME280;4958;48.150;11.506;2024-01-27T07:15:33;96875.16;;;5.33;71.46
9839;BME280;4958;48.150;11.506;2024-01-27T07:18:03;96872.41;;;5.36;71.18
9839;BME280;4958;48.150;11.506;2024-01-27T07:20:29;96866.63;;;5.56;70.61
9839;BME280;4958;48.150;11.506;2024-01-27T07:22:57;96838.56;;;5.89;69.82
9839;BME280;4958;48.150;11.506;2024-01-27T07:25:23;96807.69;;;6.36;69.08
9839;BME280;4958;48.150;11.506;2024-01-27T07:27:50;96756.34;;;6.80;67.82
9839;BME280;4958;48.150;11.506;2024-01-27T07:30:16;96680.41;;;7.11;66.08
9839;BME280;4958;48.150;11.506;2024-01-27T07:32:44;96630.78;;;7.52;65.00
9839;BME280;4958;48.150;11.506;2024-01-27T07:35:11;96578.22;;;7.87;63.69
9839;BME280;4958;48.150;11.506;2024-01-27T07:37:37;96518.78;;;8.11;63.02
9839;BME280;4958;48.150;11.506;2024-01-27T07:40:05;96473.00;;;8.16;62.50
9839;BME280;4958;48.150;11.506;2024-01-27T07:42:32;96459.81;;;8.01;62.39
9839;BME280;4958;48.150;11.506;2024-01-27T07:44:58;96474.69;;;7.97;62.48
9839;BME280;4958;48.150;11.506;2024-01-27T07:47:24;96500.28;;;8.17;62.58
9839;BME280;4958;48.150;11.506;2024-01-27T07:49:52;96501.75;;;8.39;62.21
9839;BME280;4958;48.150;11.506;2024-01-27T07:52:19;96460.94;;;8.45;61.76
9839;BME280;4958;48.150;11.506;2024-01-27T07:54:45;96468.69;;;8.63;61.72
9839;BME280;4958;48.150;11.506;2024-01-27T07:57:12;96415.00;;;8.70;60.86
9839;BME280;4958;48.150;11.506;2024-01-27T07:59:38;96403.88;;;8.79;60.58
9839;BME280;4958;48.150;11.506;2024-01-27T08:02:05;96396.03;;;8.80;60.76
9839;BME280;4958;48.150;11.506;2024-01-27T08:04:31;96366.31;;;8.78;60.12
9839;BME280;4958;48.150;11.506;2024-01-27T08:06:59;96368.22;;;8.76;60.45
9839;BME280;4958;48.150;11.506;2024-01-27T08:09:31;96376.47;;;8.70;60.32
9839;BME280;4958;48.150;11.506;2024-01-27T08:11:57;96374.88;;;8.69;60.34
9839;BME280;4958;48.150;11.506;2024-01-27T08:14:27;96377.56;;;8.67;60.15
9839;BME280;4958;48.150;11.506;2024-01-27T08:16:53;96387.28;;;8.73;60.05
9839;BME280;4958;48.150;11.506;2024-01-27T08:19:20;96358.97;;;8.83;59.91
9839;BME280;4958;48.150;11.506;2024-01-27T08:21:46;96344.81;;;8.96;59.47
9839;BME280;4958;48.150;11.506;2024-01-27T08:24:21;96338.56;;;9.17;58.99
9839;BME280;4958;48.150;11.506;2024-01-27T08:26:51;96324.13;;;9.42;58.93
9839;BME280;4958;48.150;11.506;2024-01-27T08:29:17;96285.97;;;9.63;58.13
9839;BME280;4958;48.150;11.506;2024-01-27T08:31:43;96247.03;;;9.84;57.12
9839;BME280;4958;48.150;11.506;2024-01-27T08:34:10;96219.41;;;9.94;56.46
9839;BME280;4958;48.150;11.506;2024-01-27T08:36:37;96213.50;;;10.10;56.38
9839;BME280;4958;48.150;11.506;2024-01-27T08:39:04;96205.16;;;10.16;56.20
9839;BME280;4958;48.150;11.506;2024-01-27T08:41:34;96205.53;;;10.29;56.19
9839;BME280;4958;48.150;11.506;2024-01-27T08:44:00;96218.41;;;10.37;56.17
9839;BME280;4958;48.150;11.506;2024-01-27T08:46:26;96205.22;;;10.56;55.77
9839;BME280;4958;48.150;11.506;2024-01-27T08:48:53;96141.00;;;10.63;55.08
9839;BME280;4958;48.150;11.506;2024-01-27T08:51:19;96132.63;;;10.77;55.30
9839;BME280;4958;48.150;11.506;2024-01-27T08:53:46;96101.19;;;10.82;54.43
9839;BME280;4958;48.150;11.506;2024-01-27T08:56:14;96080.41;;;10.91;54.30
9839;BME280;4958;48.150;11.506;2024-01-27T08:58:42;96025.50;;;10.91;54.06
9839;BME280;4958;48.150;11.506;2024-01-27T09:01:12;96034.34;;;10.96;54.21
9839;BME280;4958;48.150;11.506;2024-01-27T09:03:40;96057.81;;;11.01;54.54
9839;BME280;4958;48.150;11.506;2024-01-27T09:06:07;96008.69;;;11.03;53.77
9839;BME280;4958;48.150;11.506;2024-01-27T09:08:34;95980.09;;;10.90;54.01
9839;BME280;4958;48.150;11.506;2024-01-27T09:11:01;96037.91;;;10.87;54.34
9839;BME280;4958;48.150;11.506;2024-01-27T09:13:27;96068.50;;;10.90;54.64
9839;BME280;4958;48.150;11.506;2024-01-27T09:15:56;96085.69;;;10.98;54.69
9839;BME280;4958;48.150;11.506;2024-01-27T09:18:23;96104.34;;;11.08;54.78
9839;BME280;4958;48.150;11.506;2024-01-27T09:20:49;96110.09;;;11.18;54.70
9839;BME280;4958;48.150;11.506;2024-01-27T09:23:16;96057.72;;;11.26;54.35
9839;BME280;4958;48.150;11.506;2024-01-27T09:25:44;95970.53;;;11.29;53.02
9839;BME280;4958;48.150;11.506;2024-01-27T09:28:11;95945.66;;;11.36;52.91
9839;BME280;4958;48.150;11.506;2024-01-27T09:30:37;95917.56;;;11.27;52.82
9839;BME280;4958;48.150;11.506;2024-01-27T09:33:05;95952.38;;;11.23;53.13
9839;BME280;4958;48.150;11.506;2024-01-27T09:35:32;95959.59;;;11.27;52.93
9839;BME280;4958;48.150;11.506;2024-01-27T09:37:58;95917.50;;;11.35;52.54
9839;BME280;4958;48.150;11.506;2024-01-27T09:40:29;95976.38;;;11.46;53.04
9839;BME280;4958;48.150;11.506;2024-01-27T09:42:58;95977.66;;;11.27;52.96
9839;BME280;4958;48.150;11.506;2024-01-27T09:45:25;95865.94;;;11.35;51.35
9839;BME280;4958;48.150;11.506;2024-01-27T09:47:52;95879.53;;;11.29;51.75
9839;BME280;4958;48.150;11.506;2024-01-27T09:50:21;95847.28;;;11.10;51.48
9839;BME280;4958;48.150;11.506;2024-01-27T09:52:47;95922.59;;;11.20;52.50
9839;BME280;4958;48.150;11.506;2024-01-27T09:55:14;95900.59;;;11.32;51.94
9839;BME280;4958;48.150;11.506;2024-01-27T09:57:41;95918.41;;;11.19;52.62
9839;BME280;4958;48.150;11.506;2024-01-27T10:00:31;95955.13;;;11.21;52.60
9839;BME280;4958;48.150;11.506;2024-01-27T10:03:22;95914.13;;;11.34;52.09
9839;BME280;4958;48.150;11.506;2024-01-27T10:05:53;95830.13;;;11.40;51.33
9839;BME280;4958;48.150;11.506;2024-01-27T10:08:20;95893.59;;;11.18;51.93
9839;BME280;4958;48.150;11.506;2024-01-27T10:10:46;95848.66;;;11.21;51.45
9839;BME280;4958;48.150;11.506;2024-01-27T10:13:14;95903.47;;;10.92;52.22
9839;BME280;4958;48.150;11.506;2024-01-27T10:15:43;95984.22;;;11.07;53.03
9839;BME280;4958;48.150;11.506;2024-01-27T10:18:09;95984.50;;;11.12;52.77
9839;BME280;4958;48.150;11.506;2024-01-27T10:20:38;95959.53;;;11.13;52.67
9839;BME280;4958;48.150;11.506;2024-01-27T10:23:13;95948.47;;;11.04;52.41
9839;BME280;4958;48.150;11.506;2024-01-27T10:25:42;95964.63;;;11.21;52.68
9839;BME280;4958;48.150;11.506;2024-01-27T10:28:09;95895.88;;;11.36;51.86
9839;BME280;4958;48.150;11.506;2024-01-27T10:30:37;95867.50;;;11.59;51.15
9839;BME280;4958;48.150;11.506;2024-01-27T10:33:07;95875.38;;;11.80;51.16
9839;BME280;4958;48.150;11.506;2024-01-27T10:35:34;95867.91;;;12.00;51.10
9839;BME280;4958;48.150;11.506;2024-01-27T10:38:01;95805.34;;;11.98;50.34
9839;BME280;4958;48.150;11.506;2024-01-27T10:40:29;95888.56;;;12.00;51.18
9839;BME280;4958;48.150;11.506;2024-01-27T10:43:01;95718.16;;;11.93;49.48
9839;BME280;4958;48.150;11.506;2024-01-27T10:45:35;95748.88;;;11.73;49.79
9839;BME280;4958;48.150;11.506;2024-01-27T10:48:02;95684.19;;;11.75;49.17
9839;BME280;4958;48.150;11.506;2024-01-27T10:50:30;95689.72;;;11.72;49.53
9839;BME280;4958;48.150;11.506;2024-01-27T10:53:21;95721.66;;;11.86;49.80
9839;BME280;4958;48.150;11.506;2024-01-27T10:56:21;95843.81;;;11.93;49.63
9839;BME280;4958;48.150;11.506;2024-01-27T10:58:59;95939.47;;;11.91;47.82
9839;BME280;4958;48.150;11.506;2024-01-27T11:01:28;95969.97;;;11.88;48.09
9839;BME280;4958;48.150;11.506;2024-01-27T11:03:57;95987.31;;;11.94;48.40
9839;BME280;4958;48.150;11.506;2024-01-27T11:06:25;96052.63;;;11.71;49.69
9839;BME280;4958;48.150;11.506;2024-01-27T11:08:53;95991.09;;;11.60;48.78
9839;BME280;4958;48.150;11.506;2024-01-27T11:11:22;95969.34;;;11.63;48.65
9839;BME280;4958;48.150;11.506;2024-01-27T11:13:48;95992.78;;;11.53;49.10
9839;BME280;4958;48.150;11.506;2024-01-27T11:16:17;96046.84;;;11.69;49.37
9839;BME280;4958;48.150;11.506;2024-01-27T11:18:42;95995.13;;;11.63;49.10
9839;BME280;4958;48.150;11.506;2024-01-27T11:21:13;96047.44;;;11.49;49.70
9839;BME280;4958;48.150;11.506;2024-01-27T11:23:39;96035.59;;;11.62;49.52
9839;BME280;4958;48.150;11.506;2024-01-27T11:26:07;96041.31;;;11.50;49.50
9839;BME280;4958;48.150;11.506;2024-01-27T11:28:35;96022.13;;;11.52;49.34
9839;BME280;4958;48.150;11.506;2024-01-27T11:31:05;96013.13;;;11.71;49.30
9839;BME280;4958;48.150;11.506;2024-01-27T11:33:33;95978.78;;;11.70;48.36
9839;BME280;4958;48.150;11.506;2024-01-27T11:36:00;95962.34;;;11.71;48.37
9839;BME280;4958;48.150;11.506;2024-01-27T11:38:27;95966.16;;;11.75;48.27
9839;BME280;4958;48.150;11.506;2024-01-27T11:40:54;95989.28;;;11.69;48.88
9839;BME280;4958;48.150;11.506;2024-01-27T11:43:23;96011.31;;;11.80;49.17
9839;BME280;4958;48.150;11.506;2024-01-27T11:45:57;95933.03;;;11.87;47.62
9839;BME280;4958;48.150;11.506;2024-01-27T11:48:24;95938.91;;;11.96;47.79
9839;BME280;4958;48.150;11.506;2024-01-27T11:51:02;95939.81;;;12.03;47.62
9839;BME280;4958;48.150;11.506;2024-01-27T11:53:29;95925.25;;;12.10;47.37
9839;BME280;4958;48.150;11.506;2024-01-27T11:55:55;95932.25;;;12.16;47.57
9839;BME280;4958;48.150;11.506;2024-01-27T11:58:22;95854.94;;;12.08;46.22
9839;BME280;4958;48.150;11.506;2024-01-27T12:01:09;95769.06;;;11.99;45.05
9839;BME280;4958;48.150;11.506;2024-01-27T12:04:03;95833.56;;;11.99;46.04
9839;BME280;4958;48.150;11.506;2024-01-27T12:06:30;95814.53;;;11.86;46.03
9839;BME280;4958;48.150;11.506;2024-01-27T12:08:57;95855.41;;;11.74;46.50
9839;BME280;4958;48.150;11.506;2024-01-27T12:11:32;95864.44;;;11.78;46.45
9839;BME280;4958;48.150;11.506;2024-01-27T12:13:59;96433.63;;;11.87;58.86
9839;BME280;4958;48.150;11.506;2024-01-27T12:16:26;96004.97;;;12.05;48.26
9839;BME280;4958;48.150;11.506;2024-01-27T12:18:54;95926.03;;;12.10;47.47
9839;BME280;4958;48.150;11.506;2024-01-27T12:21:23;95947.75;;;12.16;47.71
9839;BME280;4958;48.150;11.506;2024-01-27T12:23:53;95812.63;;;12.24;45.67
9839;BME280;4958;48.150;11.506;2024-01-27T12:26:20;95761.34;;;12.21;44.98
9839;BME280;4958;48.150;11.506;2024-01-27T12:28:47;95783.28;;;12.10;45.25
9839;BME280;4958;48.150;11.506;2024-01-27T12:31:15;95817.25;;;12.14;45.48
9839;BME280;4958;48.150;11.506;2024-01-27T12:33:51;95783.69;;;12.28;45.00
9839;BME280;4958;48.150;11.506;2024-01-27T12:36:19;95800.56;;;12.45;45.19
9839;BME280;4958;48.150;11.506;2024-01-27T12:38:47;95797.31;;;12.58;45.35
9839;BME280;4958;48.150;11.506;2024-01-27T12:41:13;95754.88;;;12.67;44.59
9839;BME280;4958;48.150;11.506;2024-01-27T12:43:40;95762.56;;;12.61;44.90
9839;BME280;4958;48.150;11.506;2024-01-27T12:46:06;95762.03;;;12.65;44.90
9839;BME280;4958;48.150;11.506;2024-01-27T12:48:33;95750.69;;;12.66;44.58
9839;BME280;4958;48.150;11.506;2024-01-27T12:51:00;95738.22;;;12.70;44.71
9839;BME280;4958;48.150;11.506;2024-01-27T12:53:27;95690.91;;;12.69;43.83
9839;BME280;4958;48.150;11.506;2024-01-27T12:55:56;95621.81;;;12.78;42.92
9839;BME280;4958;48.150;11.506;2024-01-27T12:58:22;95623.84;;;12.83;42.68
9839;BME280;4958;48.150;11.506;2024-01-27T13:00:49;95639.34;;;12.83;43.36
9839;BME280;4958;48.150;11.506;2024-01-27T13:03:15;95652.63;;;12.79;43.31
9839;BME280;4958;48.150;11.506;2024-01-27T13:05:42;95699.41;;;12.63;44.13
9839;BME280;4958;48.150;11.506;2024-01-27T13:08:10;95694.59;;;12.60;43.81
9839;BME280;4958;48.150;11.506;2024-01-27T13:10:38;95647.41;;;12.73;43.15
9839;BME280;4958;48.150;11.506;2024-01-27T13:13:04;95564.34;;;12.76;42.00
9839;BME280;4958;48.150;11.506;2024-01-27T13:15:31;95620.28;;;12.90;43.13
9839;BME280;4958;48.150;11.506;2024-01-27T13:17:57;95597.81;;;12.91;42.08
9839;BME280;4958;48.150;11.506;2024-01-27T13:20:24;95597.44;;;12.87;42.47